createdAt,value
2019-02-28T00:00:44.315Z,305.40
2019-02-28T00:01:46.264Z,304.87
2019-02-28T00:02:44.274Z,305.42
2019-02-28T00:03:44.235Z,305.37
2019-02-28T00:04:44.220Z,305.17
2019-02-28T00:05:44.262Z,305.24
2019-02-28T00:06:45.134Z,305.22
2019-02-28T00:07:44.219Z,305.47
2019-02-28T00:08:44.192Z,304.95
2019-02-28T00:09:44.171Z,305.00
2019-02-28T00:10:44.155Z,304.89
2019-02-28T00:11:44.170Z,305.21
2019-02-28T00:12:45.253Z,304.92
2019-02-28T00:13:44.140Z,305.21
2019-02-28T00:14:45.575Z,304.93
2019-02-28T00:15:44.135Z,305.51
2019-02-28T00:16:44.111Z,304.98
2019-02-28T00:17:44.101Z,305.14
2019-02-28T00:18:44.083Z,305.48
2019-02-28T00:19:44.074Z,305.00
2019-02-28T00:20:44.061Z,305.33
2019-02-28T00:21:44.033Z,305.26
2019-02-28T00:22:48.430Z,304.84
2019-02-28T00:23:44.017Z,304.90
2019-02-28T00:24:44.015Z,305.35
2019-02-28T00:25:44.033Z,305.02
2019-02-28T00:26:47.551Z,305.65
2019-02-28T00:27:43.982Z,304.75
2019-02-28T00:28:43.974Z,305.02
2019-02-28T00:29:43.951Z,304.99
2019-02-28T00:30:43.949Z,304.68
2019-02-28T00:31:49.296Z,305.40
2019-02-28T00:32:44.918Z,304.89
2019-02-28T00:33:43.913Z,304.90
2019-02-28T00:34:43.904Z,304.96
2019-02-28T00:35:44.755Z,304.86
2019-02-28T00:36:43.870Z,305.28
2019-02-28T00:37:43.890Z,305.08
2019-02-28T00:38:43.858Z,304.99
2019-02-28T00:39:43.851Z,304.93
2019-02-28T00:40:43.835Z,305.17
2019-02-28T00:41:44.719Z,304.84
2019-02-28T00:42:43.845Z,305.51
2019-02-28T00:43:43.793Z,305.25
2019-02-28T00:44:43.788Z,305.08
2019-02-28T00:45:43.786Z,305.33
2019-02-28T00:46:45.019Z,305.29
2019-02-28T00:47:43.779Z,305.30
2019-02-28T00:48:43.792Z,305.23
2019-02-28T00:49:43.732Z,305.06
2019-02-28T00:50:43.715Z,305.05
2019-02-28T00:51:43.725Z,305.37
2019-02-28T00:52:43.701Z,305.59
2019-02-28T00:53:43.703Z,305.47
2019-02-28T00:54:44.519Z,305.31
2019-02-28T00:55:45.968Z,305.14
2019-02-28T00:56:43.660Z,305.16
2019-02-28T00:57:43.662Z,305.06
2019-02-28T00:58:43.671Z,305.09
2019-02-28T00:59:43.680Z,305.34
2019-02-28T01:00:43.621Z,304.96
2019-02-28T01:01:45.875Z,305.60
2019-02-28T01:02:43.591Z,304.87
2019-02-28T01:03:43.596Z,305.52
2019-02-28T01:04:43.568Z,305.16
2019-02-28T01:05:43.567Z,305.41
2019-02-28T01:06:43.544Z,305.68
2019-02-28T01:07:43.531Z,305.74
2019-02-28T01:08:43.538Z,305.25
2019-02-28T01:09:43.521Z,305.88
2019-02-28T01:10:43.510Z,305.15
2019-02-28T01:11:44.763Z,305.10
2019-02-28T01:12:43.486Z,305.85
2019-02-28T01:13:43.491Z,305.63
2019-02-28T01:14:43.456Z,305.69
2019-02-28T01:15:44.848Z,305.53
2019-02-28T01:16:43.447Z,305.72
2019-02-28T01:17:43.444Z,305.17
2019-02-28T01:18:43.464Z,305.38
2019-02-28T01:19:43.414Z,306.06
2019-02-28T01:20:43.420Z,305.52
2019-02-28T01:21:43.402Z,305.58
2019-02-28T01:22:43.383Z,305.01
2019-02-28T01:23:43.362Z,305.36
2019-02-28T01:24:43.390Z,305.24
2019-02-28T01:25:43.338Z,305.69
2019-02-28T01:26:46.674Z,305.66
2019-02-28T01:27:43.328Z,305.23
2019-02-28T01:28:43.308Z,305.15
2019-02-28T01:29:43.340Z,305.38
2019-02-28T01:30:43.288Z,306.00
2019-02-28T01:31:43.451Z,305.37
2019-02-28T01:32:43.275Z,305.23
2019-02-28T01:33:43.270Z,304.96
2019-02-28T01:34:43.242Z,305.60
2019-02-28T01:35:43.265Z,305.44
2019-02-28T01:36:43.288Z,304.93
2019-02-28T01:37:43.211Z,305.47
2019-02-28T01:38:43.200Z,305.77
2019-02-28T01:39:43.183Z,305.80
2019-02-28T01:40:43.165Z,305.38
2019-02-28T01:41:45.176Z,305.31
2019-02-28T01:42:43.161Z,305.30
2019-02-28T01:43:43.150Z,305.40
2019-02-28T01:44:43.156Z,305.41
2019-02-28T01:45:44.229Z,305.71
2019-02-28T01:46:43.101Z,305.45
2019-02-28T01:47:43.135Z,305.94
2019-02-28T01:48:43.081Z,305.49
2019-02-28T01:49:43.085Z,305.72
2019-02-28T01:50:43.068Z,305.88
2019-02-28T01:51:43.062Z,305.63
2019-02-28T01:52:45.961Z,305.79
2019-02-28T01:53:43.029Z,305.38
2019-02-28T01:54:43.011Z,305.41
2019-02-28T01:55:43.039Z,305.55
2019-02-28T01:56:42.999Z,305.87
2019-02-28T01:57:44.386Z,305.14
2019-02-28T01:58:43.012Z,305.55
2019-02-28T01:59:42.965Z,305.51
2019-02-28T02:00:42.964Z,305.24
2019-02-28T02:01:42.955Z,305.71
2019-02-28T02:02:42.977Z,305.56
2019-02-28T02:03:42.934Z,305.55
2019-02-28T02:04:43.215Z,305.42
2019-02-28T02:05:42.900Z,305.51
2019-02-28T02:06:42.897Z,305.80
2019-02-28T02:07:42.876Z,305.90
2019-02-28T02:08:42.882Z,305.42
2019-02-28T02:09:46.309Z,305.79
2019-02-28T02:10:42.885Z,305.27
2019-02-28T02:11:42.830Z,305.94
2019-02-28T02:12:42.827Z,305.47
2019-02-28T02:13:42.817Z,305.39
2019-02-28T02:14:45.615Z,305.57
2019-02-28T02:15:42.789Z,305.69
2019-02-28T02:16:42.821Z,305.55
2019-02-28T02:17:42.765Z,305.05
2019-02-28T02:18:43.426Z,305.59
2019-02-28T02:19:42.746Z,305.34
2019-02-28T02:20:42.754Z,305.43
2019-02-28T02:21:42.790Z,305.78
2019-02-28T02:22:44.493Z,305.35
2019-02-28T02:23:42.706Z,305.51
2019-02-28T02:24:42.709Z,305.18
2019-02-28T02:25:42.682Z,305.41
2019-02-28T02:26:45.189Z,305.54
2019-02-28T02:27:42.665Z,306.03
2019-02-28T02:28:42.658Z,305.61
2019-02-28T02:29:42.630Z,305.30
2019-02-28T02:30:42.625Z,305.51
2019-02-28T02:31:43.711Z,305.40
2019-02-28T02:32:42.643Z,305.39
2019-02-28T02:33:42.603Z,304.94
2019-02-28T02:34:42.587Z,305.78
2019-02-28T02:35:43.604Z,305.00
2019-02-28T02:36:43.175Z,305.40
2019-02-28T02:37:42.560Z,305.69
2019-02-28T02:38:42.529Z,305.38
2019-02-28T02:39:42.522Z,305.34
2019-02-28T02:40:42.510Z,305.58
2019-02-28T02:41:42.521Z,305.04
2019-02-28T02:42:47.562Z,305.29
2019-02-28T02:43:43.482Z,305.24
2019-02-28T02:44:42.466Z,305.21
2019-02-28T02:45:43.776Z,305.66
2019-02-28T02:46:42.459Z,305.12
2019-02-28T02:47:42.455Z,305.45
2019-02-28T02:48:43.318Z,305.83
2019-02-28T02:49:42.417Z,305.33
2019-02-28T02:50:42.413Z,305.05
2019-02-28T02:51:49.029Z,305.38
2019-02-28T02:52:43.379Z,305.69
2019-02-28T02:53:43.357Z,305.42
2019-02-28T02:54:42.368Z,305.47
2019-02-28T02:55:42.354Z,305.45
2019-02-28T02:56:42.354Z,305.31
2019-02-28T02:57:42.334Z,305.47
2019-02-28T02:58:42.335Z,305.24
2019-02-28T02:59:42.307Z,305.63
2019-02-28T03:00:49.770Z,305.59
2019-02-28T03:01:43.285Z,305.17
2019-02-28T03:02:42.274Z,305.54
2019-02-28T03:03:44.179Z,305.29
2019-02-28T03:04:42.278Z,305.17
2019-02-28T03:05:42.246Z,305.41
2019-02-28T03:06:45.919Z,305.13
2019-02-28T03:07:42.228Z,305.47
2019-02-28T03:08:42.220Z,305.47
2019-02-28T03:09:43.517Z,305.66
2019-02-28T03:10:42.194Z,305.31
2019-02-28T03:11:42.176Z,305.55
2019-02-28T03:12:42.157Z,305.47
2019-02-28T03:13:44.048Z,305.57
2019-02-28T03:14:42.157Z,305.55
2019-02-28T03:15:42.144Z,305.10
2019-02-28T03:16:42.118Z,305.23
2019-02-28T03:17:46.609Z,305.41
2019-02-28T03:18:43.104Z,305.80
2019-02-28T03:19:42.094Z,305.20
2019-02-28T03:20:42.480Z,305.29
2019-02-28T03:21:42.082Z,305.59
2019-02-28T03:22:42.047Z,305.71
2019-02-28T03:23:42.050Z,305.20
2019-02-28T03:24:42.046Z,305.38
2019-02-28T03:25:42.028Z,305.40
2019-02-28T03:26:43.356Z,305.70
2019-02-28T03:27:42.048Z,305.37
2019-02-28T03:28:41.995Z,305.52
2019-02-28T03:29:43.719Z,305.54
2019-02-28T03:30:41.968Z,305.62
2019-02-28T03:31:41.994Z,305.36
2019-02-28T03:32:42.853Z,305.40
2019-02-28T03:33:41.940Z,305.24
2019-02-28T03:34:55.306Z,305.79
2019-02-28T03:35:44.130Z,304.95
2019-02-28T03:36:41.899Z,305.90
2019-02-28T03:37:41.960Z,305.12
2019-02-28T03:38:48.608Z,305.35
2019-02-28T03:39:42.878Z,305.35
2019-02-28T03:40:41.859Z,305.15
2019-02-28T03:41:41.850Z,305.59
2019-02-28T03:42:41.896Z,305.25
2019-02-28T03:43:43.877Z,305.73
2019-02-28T03:44:41.820Z,305.35
2019-02-28T03:45:41.807Z,305.57
2019-02-28T03:46:46.281Z,305.36
2019-02-28T03:47:42.807Z,305.24
2019-02-28T03:48:41.772Z,305.68
2019-02-28T03:49:48.517Z,305.39
2019-02-28T03:50:42.757Z,305.85
2019-02-28T03:51:41.754Z,305.59
2019-02-28T03:52:43.899Z,305.40
2019-02-28T03:53:41.712Z,305.24
2019-02-28T03:54:41.696Z,305.90
2019-02-28T03:55:41.751Z,305.63
2019-02-28T03:56:41.676Z,305.21
2019-02-28T03:57:41.704Z,305.47
2019-02-28T03:58:42.998Z,305.41
2019-02-28T03:59:41.655Z,305.50
2019-02-28T04:00:41.647Z,305.93
2019-02-28T04:01:45.494Z,305.62
2019-02-28T04:02:41.638Z,305.38
2019-02-28T04:03:41.610Z,305.48
2019-02-28T04:04:48.797Z,305.60
2019-02-28T04:05:42.601Z,305.15
2019-02-28T04:06:41.586Z,305.60
2019-02-28T04:07:41.576Z,305.72
2019-02-28T04:08:41.542Z,305.72
2019-02-28T04:09:44.296Z,305.08
2019-02-28T04:10:41.544Z,305.37
2019-02-28T04:11:41.537Z,304.99
2019-02-28T04:12:45.705Z,305.15
2019-02-28T04:13:42.494Z,305.45
2019-02-28T04:14:41.480Z,305.80
2019-02-28T04:15:49.814Z,305.57
2019-02-28T04:16:42.463Z,305.35
2019-02-28T04:17:41.460Z,305.53
2019-02-28T04:18:46.094Z,305.67
2019-02-28T04:19:42.442Z,305.60
2019-02-28T04:20:41.449Z,305.52
2019-02-28T04:21:46.307Z,305.30
2019-02-28T04:22:42.398Z,305.12
2019-02-28T04:23:41.392Z,305.71
2019-02-28T04:24:41.414Z,305.88
2019-02-28T04:25:41.366Z,305.52
2019-02-28T04:26:41.404Z,305.69
2019-02-28T04:27:41.833Z,305.47
2019-02-28T04:28:41.330Z,304.85
2019-02-28T04:29:41.333Z,305.27
2019-02-28T04:30:43.793Z,305.38
2019-02-28T04:31:41.307Z,305.13
2019-02-28T04:32:41.288Z,305.38
2019-02-28T04:33:41.293Z,305.42
2019-02-28T04:34:41.263Z,305.66
2019-02-28T04:35:41.287Z,305.28
2019-02-28T04:36:41.268Z,305.64
2019-02-28T04:37:45.482Z,305.61
2019-02-28T04:38:42.237Z,305.14
2019-02-28T04:39:41.210Z,305.56
2019-02-28T04:40:41.233Z,305.67
2019-02-28T04:41:41.187Z,305.30
2019-02-28T04:42:41.197Z,305.63
2019-02-28T04:43:41.649Z,305.28
2019-02-28T04:44:41.165Z,305.43
2019-02-28T04:45:41.192Z,305.58
2019-02-28T04:46:41.135Z,305.81
2019-02-28T04:47:41.697Z,305.62
2019-02-28T04:48:41.126Z,305.57
2019-02-28T04:49:41.113Z,305.67
2019-02-28T04:50:41.117Z,305.55
2019-02-28T04:51:41.176Z,305.54
2019-02-28T04:52:46.763Z,305.80
2019-02-28T04:53:42.055Z,305.92
2019-02-28T04:54:41.059Z,305.29
2019-02-28T04:55:41.037Z,305.19
2019-02-28T04:56:42.295Z,305.53
2019-02-28T04:57:41.014Z,305.37
2019-02-28T04:58:41.009Z,305.45
2019-02-28T04:59:40.989Z,305.49
2019-02-28T05:00:40.969Z,305.85
2019-02-28T05:01:40.981Z,305.71
2019-02-28T05:02:40.953Z,305.75
2019-02-28T05:03:40.954Z,305.42
2019-02-28T05:04:40.933Z,305.80
2019-02-28T05:05:40.923Z,305.79
2019-02-28T05:06:41.521Z,305.33
2019-02-28T05:07:40.903Z,305.35
2019-02-28T05:08:40.890Z,305.64
2019-02-28T05:09:40.878Z,305.51
2019-02-28T05:10:40.882Z,305.59
2019-02-28T05:11:40.852Z,305.96
2019-02-28T05:12:41.165Z,305.58
2019-02-28T05:13:41.217Z,305.72
2019-02-28T05:14:40.826Z,305.86
2019-02-28T05:15:41.155Z,305.62
2019-02-28T05:16:47.173Z,305.47
2019-02-28T05:17:41.803Z,305.31
2019-02-28T05:18:40.780Z,305.67
2019-02-28T05:19:40.778Z,305.88
2019-02-28T05:20:44.685Z,305.81
2019-02-28T05:21:41.751Z,305.72
2019-02-28T05:22:40.777Z,305.48
2019-02-28T05:23:40.724Z,305.30
2019-02-28T05:24:42.599Z,305.68
2019-02-28T05:25:40.714Z,305.70
2019-02-28T05:26:40.695Z,305.43
2019-02-28T05:27:40.682Z,305.47
2019-02-28T05:28:41.403Z,305.37
2019-02-28T05:29:43.884Z,305.49
2019-02-28T05:30:41.564Z,305.95
2019-02-28T05:31:40.629Z,305.59
2019-02-28T05:32:40.625Z,305.60
2019-02-28T05:33:42.128Z,305.64
2019-02-28T05:34:40.641Z,305.55
2019-02-28T05:35:40.601Z,305.62
2019-02-28T05:36:40.582Z,305.86
2019-02-28T05:37:46.875Z,305.18
2019-02-28T05:38:41.592Z,305.42
2019-02-28T05:39:40.552Z,305.65
2019-02-28T05:40:41.385Z,306.03
2019-02-28T05:41:40.525Z,305.71
2019-02-28T05:42:40.519Z,305.62
2019-02-28T05:43:40.505Z,305.88
2019-02-28T05:44:40.985Z,306.15
2019-02-28T05:45:40.485Z,305.69
2019-02-28T05:46:40.486Z,305.32
2019-02-28T05:47:46.318Z,305.61
2019-02-28T05:48:41.453Z,306.03
2019-02-28T05:49:40.971Z,305.37
2019-02-28T05:50:40.427Z,305.84
2019-02-28T05:51:40.419Z,305.47
2019-02-28T05:52:40.413Z,306.09
2019-02-28T05:53:41.530Z,305.62
2019-02-28T05:54:40.397Z,306.01
2019-02-28T05:55:40.377Z,305.44
2019-02-28T05:56:40.366Z,305.70
2019-02-28T05:57:43.498Z,305.86
2019-02-28T05:58:40.347Z,305.48
2019-02-28T05:59:40.366Z,305.21
2019-02-28T06:00:40.348Z,305.66
2019-02-28T06:01:40.304Z,305.63
2019-02-28T06:02:40.295Z,305.77
2019-02-28T06:03:40.308Z,305.83
2019-02-28T06:04:40.297Z,305.76
2019-02-28T06:05:40.279Z,305.32
2019-02-28T06:06:40.275Z,306.06
2019-02-28T06:07:40.250Z,305.81
2019-02-28T06:08:40.266Z,305.94
2019-02-28T06:09:40.254Z,305.74
2019-02-28T06:10:40.231Z,305.66
2019-02-28T06:11:40.218Z,305.61
2019-02-28T06:12:40.422Z,305.80
2019-02-28T06:13:40.178Z,305.91
2019-02-28T06:14:40.182Z,305.95
2019-02-28T06:15:40.164Z,305.76
2019-02-28T06:16:40.141Z,305.58
2019-02-28T06:17:40.140Z,306.42
2019-02-28T06:18:40.124Z,305.52
2019-02-28T06:19:43.111Z,306.30
2019-02-28T06:20:40.106Z,305.80
2019-02-28T06:21:40.091Z,306.07
2019-02-28T06:22:40.108Z,305.80
2019-02-28T06:23:40.693Z,305.95
2019-02-28T06:24:40.061Z,306.09
2019-02-28T06:25:40.070Z,306.18
2019-02-28T06:26:40.078Z,306.55
2019-02-28T06:27:41.910Z,306.33
2019-02-28T06:28:40.021Z,306.23
2019-02-28T06:29:40.006Z,306.60
2019-02-28T06:30:41.546Z,306.71
2019-02-28T06:31:39.992Z,306.80
2019-02-28T06:32:39.981Z,306.53
2019-02-28T06:33:39.952Z,306.95
2019-02-28T06:34:42.211Z,306.63
2019-02-28T06:35:39.948Z,306.78
2019-02-28T06:36:39.970Z,306.93
2019-02-28T06:37:39.933Z,306.71
2019-02-28T06:38:39.915Z,306.90
2019-02-28T06:39:39.905Z,307.14
2019-02-28T06:40:39.882Z,307.02
2019-02-28T06:41:40.717Z,307.16
2019-02-28T06:42:39.866Z,306.89
2019-02-28T06:43:39.853Z,306.82
2019-02-28T06:44:39.847Z,307.25
2019-02-28T06:45:39.825Z,306.88
2019-02-28T06:46:40.766Z,306.63
2019-02-28T06:47:39.797Z,307.38
2019-02-28T06:48:39.794Z,307.33
2019-02-28T06:49:41.852Z,306.99
2019-02-28T06:50:39.786Z,307.52
2019-02-28T06:51:39.789Z,306.95
2019-02-28T06:52:39.758Z,307.40
2019-02-28T06:53:39.741Z,307.25
2019-02-28T06:54:40.119Z,307.18
2019-02-28T06:55:39.716Z,307.26
2019-02-28T06:56:39.724Z,307.36
2019-02-28T06:57:39.737Z,307.36
2019-02-28T06:58:39.683Z,307.72
2019-02-28T06:59:39.731Z,307.55
2019-02-28T07:00:39.667Z,307.37
2019-02-28T07:01:39.663Z,307.44
2019-02-28T07:02:39.642Z,307.16
2019-02-28T07:03:39.876Z,307.49
2019-02-28T07:04:39.637Z,307.38
2019-02-28T07:05:39.594Z,307.85
2019-02-28T07:06:39.587Z,307.53
2019-02-28T07:07:39.577Z,307.74
2019-02-28T07:08:39.598Z,307.40
2019-02-28T07:09:39.562Z,307.60
2019-02-28T07:10:41.458Z,307.10
2019-02-28T07:11:39.546Z,307.16
2019-02-28T07:12:39.535Z,307.82
2019-02-28T07:13:40.242Z,307.81
2019-02-28T07:14:39.524Z,307.53
2019-02-28T07:15:39.510Z,307.64
2019-02-28T07:16:39.486Z,307.39
2019-02-28T07:17:42.541Z,307.39
2019-02-28T07:18:40.480Z,307.67
2019-02-28T07:19:39.465Z,307.94
2019-02-28T07:20:39.434Z,307.47
2019-02-28T07:21:43.011Z,307.15
2019-02-28T07:22:40.152Z,307.30
2019-02-28T07:23:39.426Z,307.34
2019-02-28T07:24:39.412Z,307.79
2019-02-28T07:25:39.381Z,307.57
2019-02-28T07:26:39.366Z,307.38
2019-02-28T07:27:39.355Z,307.74
2019-02-28T07:28:39.347Z,307.32
2019-02-28T07:29:42.698Z,307.90
2019-02-28T07:30:39.338Z,307.27
2019-02-28T07:31:39.332Z,307.83
2019-02-28T07:32:39.300Z,307.70
2019-02-28T07:33:41.276Z,307.80
2019-02-28T07:34:40.315Z,307.28
2019-02-28T07:35:39.289Z,307.29
2019-02-28T07:36:41.511Z,307.30
2019-02-28T07:37:40.249Z,307.00
2019-02-28T07:38:39.245Z,307.28
2019-02-28T07:39:40.420Z,307.55
2019-02-28T07:40:39.234Z,307.45
2019-02-28T07:41:41.346Z,307.29
2019-02-28T07:42:39.207Z,307.27
2019-02-28T07:43:39.204Z,307.45
2019-02-28T07:44:39.181Z,306.93
2019-02-28T07:45:39.202Z,307.05
2019-02-28T07:46:42.438Z,306.93
2019-02-28T07:47:39.201Z,307.15
2019-02-28T07:48:39.134Z,306.75
2019-02-28T07:49:39.103Z,306.60
2019-02-28T07:50:39.109Z,306.50
2019-02-28T07:51:39.121Z,306.52
2019-02-28T07:52:39.087Z,306.59
2019-02-28T07:53:40.976Z,306.51
2019-02-28T07:54:39.069Z,306.47
2019-02-28T07:55:39.082Z,306.48
2019-02-28T07:56:43.301Z,307.12
2019-02-28T07:57:39.024Z,306.23
2019-02-28T07:58:39.015Z,306.58
2019-02-28T07:59:42.386Z,307.01
2019-02-28T08:00:39.003Z,306.66
2019-02-28T08:01:39.060Z,306.45
2019-02-28T08:02:39.828Z,306.45
2019-02-28T08:03:38.965Z,306.78
2019-02-28T08:04:38.954Z,307.42
2019-02-28T08:05:38.955Z,307.11
2019-02-28T08:06:39.223Z,307.59
2019-02-28T08:07:38.956Z,307.52
2019-02-28T08:08:38.938Z,307.09
2019-02-28T08:09:40.572Z,306.98
2019-02-28T08:10:38.920Z,306.93
2019-02-28T08:11:38.906Z,306.72
2019-02-28T08:12:38.889Z,307.10
2019-02-28T08:13:38.861Z,306.95
2019-02-28T08:14:38.853Z,307.60
2019-02-28T08:15:38.848Z,306.99
2019-02-28T08:16:38.834Z,307.19
2019-02-28T08:17:40.677Z,306.76
2019-02-28T08:18:38.804Z,307.27
2019-02-28T08:19:38.791Z,307.36
2019-02-28T08:20:38.793Z,307.73
2019-02-28T08:21:43.969Z,306.84
2019-02-28T08:22:39.774Z,307.18
2019-02-28T08:23:38.744Z,307.67
2019-02-28T08:24:38.727Z,307.16
2019-02-28T08:25:39.660Z,307.41
2019-02-28T08:26:38.720Z,307.37
2019-02-28T08:27:38.741Z,307.25
2019-02-28T08:28:38.704Z,307.34
2019-02-28T08:29:38.683Z,307.30
2019-02-28T08:30:38.671Z,307.01
2019-02-28T08:31:38.659Z,307.50
2019-02-28T08:32:42.768Z,307.64
2019-02-28T08:33:38.674Z,307.26
2019-02-28T08:34:38.633Z,307.56
2019-02-28T08:35:38.636Z,307.10
2019-02-28T08:36:38.631Z,307.18
2019-02-28T08:37:38.595Z,307.01
2019-02-28T08:38:38.608Z,306.56
2019-02-28T08:39:41.248Z,307.41
2019-02-28T08:40:38.589Z,307.76
2019-02-28T08:41:38.541Z,307.13
2019-02-28T08:42:39.651Z,307.11
2019-02-28T08:43:38.551Z,307.33
2019-02-28T08:44:38.523Z,306.50
2019-02-28T08:45:38.520Z,307.09
2019-02-28T08:46:38.499Z,306.89
2019-02-28T08:47:38.485Z,306.67
2019-02-28T08:48:38.520Z,306.85
2019-02-28T08:49:42.183Z,306.86
2019-02-28T08:50:39.455Z,307.26
2019-02-28T08:51:38.447Z,307.55
2019-02-28T08:52:41.028Z,307.21
2019-02-28T08:53:38.425Z,307.27
2019-02-28T08:54:38.422Z,307.15
2019-02-28T08:55:39.450Z,306.90
2019-02-28T08:56:38.391Z,307.14
2019-02-28T08:57:38.379Z,307.36
2019-02-28T08:58:38.552Z,307.32
2019-02-28T08:59:38.358Z,307.06
2019-02-28T09:00:38.365Z,307.21
2019-02-28T09:01:40.986Z,306.75
2019-02-28T09:02:39.331Z,307.24
2019-02-28T09:03:38.303Z,306.77
2019-02-28T09:04:41.335Z,307.12
2019-02-28T09:05:38.335Z,307.19
2019-02-28T09:06:41.026Z,307.28
2019-02-28T09:07:38.263Z,306.92
2019-02-28T09:08:38.253Z,307.48
2019-02-28T09:09:38.248Z,307.45
2019-02-28T09:10:38.245Z,307.88
2019-02-28T09:11:38.259Z,307.45
2019-02-28T09:12:38.217Z,307.23
2019-02-28T09:13:39.977Z,306.62
2019-02-28T09:14:38.182Z,307.21
2019-02-28T09:15:38.176Z,307.00
2019-02-28T09:16:39.712Z,306.58
2019-02-28T09:17:38.160Z,306.68
2019-02-28T09:18:38.153Z,306.83
2019-02-28T09:19:38.140Z,306.26
2019-02-28T09:20:38.129Z,306.37
2019-02-28T09:21:38.143Z,305.82
2019-02-28T09:22:38.107Z,305.54
2019-02-28T09:23:38.506Z,305.47
2019-02-28T09:24:38.180Z,305.80
2019-02-28T09:25:38.068Z,305.34
2019-02-28T09:26:38.077Z,305.43
2019-02-28T09:27:38.869Z,305.96
2019-02-28T09:28:38.042Z,305.25
2019-02-28T09:29:38.033Z,305.46
2019-02-28T09:30:38.031Z,305.81
2019-02-28T09:31:39.041Z,305.36
2019-02-28T09:32:38.020Z,304.94
2019-02-28T09:33:37.987Z,305.56
2019-02-28T09:34:37.962Z,305.41
2019-02-28T09:35:37.960Z,304.99
2019-02-28T09:36:37.977Z,305.12
2019-02-28T09:37:37.950Z,305.42
2019-02-28T09:38:37.937Z,305.05
2019-02-28T09:39:37.943Z,305.41
2019-02-28T09:40:37.908Z,305.75
2019-02-28T09:41:40.313Z,305.35
2019-02-28T09:42:37.923Z,305.83
2019-02-28T09:43:37.886Z,306.03
2019-02-28T09:44:37.876Z,305.24
2019-02-28T09:45:40.029Z,305.60
2019-02-28T09:46:37.840Z,305.43
2019-02-28T09:47:37.838Z,305.28
2019-02-28T09:48:38.023Z,304.92
2019-02-28T09:49:37.812Z,305.52
2019-02-28T09:50:37.804Z,305.11
2019-02-28T09:51:37.800Z,304.94
2019-02-28T09:52:41.289Z,305.26
2019-02-28T09:53:37.790Z,304.74
2019-02-28T09:54:37.772Z,305.64
2019-02-28T09:55:39.246Z,305.44
2019-02-28T09:56:37.749Z,305.02
2019-02-28T09:57:37.721Z,303.88
2019-02-28T09:58:37.757Z,304.12
2019-02-28T09:59:38.633Z,304.10
2019-02-28T10:00:37.690Z,304.05
2019-02-28T10:01:37.689Z,303.74
2019-02-28T10:02:40.442Z,304.05
2019-02-28T10:03:38.672Z,303.74
2019-02-28T10:04:37.644Z,303.45
2019-02-28T10:05:38.911Z,303.38
2019-02-28T10:06:37.627Z,303.67
2019-02-28T10:07:37.612Z,302.82
2019-02-28T10:08:37.984Z,304.13
2019-02-28T10:09:40.569Z,304.02
2019-02-28T10:10:38.588Z,303.84
2019-02-28T10:11:37.573Z,303.91
2019-02-28T10:12:39.445Z,304.31
2019-02-28T10:13:37.583Z,304.32
2019-02-28T10:14:37.525Z,305.21
2019-02-28T10:15:38.600Z,303.91
2019-02-28T10:16:37.506Z,304.56
2019-02-28T10:17:37.508Z,305.00
2019-02-28T10:18:38.780Z,304.46
2019-02-28T10:19:45.565Z,304.30
2019-02-28T10:20:38.471Z,304.48
2019-02-28T10:21:39.589Z,304.95
2019-02-28T10:22:37.451Z,305.13
2019-02-28T10:23:37.447Z,304.40
2019-02-28T10:24:37.448Z,304.72
2019-02-28T10:25:43.303Z,304.02
2019-02-28T10:26:38.408Z,304.46
2019-02-28T10:27:37.395Z,303.77
2019-02-28T10:28:37.380Z,303.49
2019-02-28T10:29:38.401Z,303.18
2019-02-28T10:30:37.368Z,303.52
2019-02-28T10:31:38.439Z,302.84
2019-02-28T10:32:37.343Z,302.92
2019-02-28T10:33:37.330Z,303.04
2019-02-28T10:34:37.332Z,302.75
2019-02-28T10:35:37.728Z,302.38
2019-02-28T10:36:37.305Z,302.26
2019-02-28T10:37:37.285Z,302.47
2019-02-28T10:38:37.283Z,301.66
2019-02-28T10:39:40.281Z,302.20
2019-02-28T10:40:38.281Z,302.35
2019-02-28T10:41:37.240Z,302.13
2019-02-28T10:42:40.282Z,302.45
2019-02-28T10:43:37.221Z,301.95
2019-02-28T10:44:37.249Z,302.23
2019-02-28T10:45:41.150Z,302.33
2019-02-28T10:46:37.195Z,302.52
2019-02-28T10:47:37.178Z,303.56
2019-02-28T10:48:41.800Z,302.43
2019-02-28T10:49:38.185Z,302.49
2019-02-28T10:50:37.151Z,302.60
2019-02-28T10:51:37.144Z,301.98
2019-02-28T10:52:37.132Z,302.07
2019-02-28T10:53:39.359Z,301.42
2019-02-28T10:54:37.116Z,302.43
2019-02-28T10:55:37.116Z,302.93
2019-02-28T10:56:39.054Z,302.61
2019-02-28T10:57:37.299Z,302.51
2019-02-28T10:58:37.073Z,302.52
2019-02-28T10:59:37.065Z,302.53
2019-02-28T11:00:37.057Z,301.83
2019-02-28T11:01:41.599Z,302.19
2019-02-28T11:02:37.022Z,302.02
2019-02-28T11:03:37.011Z,302.60
2019-02-28T11:04:42.813Z,302.25
2019-02-28T11:05:37.996Z,302.11
2019-02-28T11:06:36.983Z,302.32
2019-02-28T11:07:37.819Z,302.07
2019-02-28T11:08:36.952Z,301.94
2019-02-28T11:09:36.948Z,301.84
2019-02-28T11:10:36.978Z,301.52
2019-02-28T11:11:36.935Z,300.82
2019-02-28T11:12:36.921Z,301.38
2019-02-28T11:13:36.903Z,301.13
2019-02-28T11:14:38.667Z,300.38
2019-02-28T11:15:36.910Z,300.83
2019-02-28T11:16:36.910Z,301.02
2019-02-28T11:17:36.859Z,300.73
2019-02-28T11:18:36.838Z,300.14
2019-02-28T11:19:36.829Z,300.40
2019-02-28T11:20:36.830Z,300.64
2019-02-28T11:21:36.819Z,300.93
2019-02-28T11:22:39.681Z,301.02
2019-02-28T11:23:36.794Z,300.85
2019-02-28T11:24:36.783Z,300.70
2019-02-28T11:25:36.765Z,300.67
2019-02-28T11:26:36.753Z,300.49
2019-02-28T11:27:36.773Z,301.51
2019-02-28T11:28:36.729Z,301.58
2019-02-28T11:29:36.732Z,301.95
2019-02-28T11:30:36.722Z,301.64
2019-02-28T11:31:36.711Z,302.08
2019-02-28T11:32:36.719Z,301.88
2019-02-28T11:33:39.620Z,302.18
2019-02-28T11:34:36.682Z,302.09
2019-02-28T11:35:36.692Z,302.75
2019-02-28T11:36:36.651Z,302.14
2019-02-28T11:37:36.638Z,303.04
2019-02-28T11:38:36.632Z,302.24
2019-02-28T11:39:36.639Z,302.83
2019-02-28T11:40:36.609Z,303.03
2019-02-28T11:41:36.609Z,303.12
2019-02-28T11:42:36.594Z,303.07
2019-02-28T11:43:38.470Z,302.63
2019-02-28T11:44:36.597Z,303.10
2019-02-28T11:45:36.549Z,303.46
2019-02-28T11:46:36.698Z,303.17
2019-02-28T11:47:36.540Z,303.18
2019-02-28T11:48:36.528Z,302.40
2019-02-28T11:49:36.526Z,302.65
2019-02-28T11:50:40.947Z,303.02
2019-02-28T11:51:37.488Z,303.07
2019-02-28T11:52:36.480Z,302.79
2019-02-28T11:53:39.563Z,301.80
2019-02-28T11:54:36.462Z,302.68
2019-02-28T11:55:36.470Z,302.29
2019-02-28T11:56:36.445Z,301.46
2019-02-28T11:57:37.681Z,300.74
2019-02-28T11:58:36.416Z,300.31
2019-02-28T11:59:36.399Z,300.81
2019-02-28T12:00:36.745Z,300.70
2019-02-28T12:01:36.388Z,300.79
2019-02-28T12:02:36.380Z,299.87
2019-02-28T12:03:36.583Z,300.25
2019-02-28T12:04:37.479Z,300.55
2019-02-28T12:05:36.346Z,299.88
2019-02-28T12:06:36.352Z,299.99
2019-02-28T12:07:36.322Z,299.39
2019-02-28T12:08:36.325Z,299.40
2019-02-28T12:09:36.290Z,299.88
2019-02-28T12:10:36.303Z,299.67
2019-02-28T12:11:36.547Z,300.09
2019-02-28T12:12:36.277Z,299.77
2019-02-28T12:13:36.253Z,300.05
2019-02-28T12:14:36.246Z,299.59
2019-02-28T12:15:37.963Z,299.92
2019-02-28T12:16:36.251Z,299.90
2019-02-28T12:17:36.205Z,300.46
2019-02-28T12:18:39.575Z,299.99
2019-02-28T12:19:36.188Z,300.10
2019-02-28T12:20:36.181Z,299.59
2019-02-28T12:21:38.133Z,300.15
2019-02-28T12:22:36.172Z,300.93
2019-02-28T12:23:36.138Z,300.43
2019-02-28T12:24:36.125Z,300.67
2019-02-28T12:25:36.129Z,300.06
2019-02-28T12:26:36.108Z,300.35
2019-02-28T12:27:36.140Z,300.35
2019-02-28T12:28:38.406Z,301.03